sensor_id;sensor_type;location;lat;lon;timestamp;pressure;altitude;pressure_sealevel;temperature;humidity
56894;BME280;43392;50.078;13.704;2024-02-14T00:01:14;97393.53;;;4.40;77.15
56894;BME280;43392;50.078;13.704;2024-02-14T00:03:42;97396.78;;;4.42;77.29
56894;BME280;43392;50.078;13.704;2024-02-14T00:06:09;97398.84;;;4.40;77.08
56894;BME280;43392;50.078;13.704;2024-02-14T00:08:37;97390.75;;;4.35;77.14
56894;BME280;43392;50.078;13.704;2024-02-14T00:11:04;97380.56;;;4.32;77.33
56894;BME280;43392;50.078;13.704;2024-02-14T00:13:31;97400.22;;;4.31;77.38
56894;BME280;43392;50.078;13.704;2024-02-14T00:15:59;97394.91;;;4.31;77.31
56894;BME280;43392;50.078;13.704;2024-02-14T00:18:26;97392.25;;;4.31;77.22
56894;BME280;43392;50.078;13.704;2024-02-14T00:20:54;97394.91;;;4.31;77.38
56894;BME280;43392;50.078;13.704;2024-02-14T00:23:20;97394.66;;;4.32;77.33
56894;BME280;43392;50.078;13.704;2024-02-14T00:25:47;97389.13;;;4.34;77.17
56894;BME280;43392;50.078;13.704;2024-02-14T00:28:13;97380.94;;;4.35;77.09
56894;BME280;43392;50.078;13.704;2024-02-14T00:30:40;97395.63;;;4.38;76.99
56894;BME280;43392;50.078;13.704;2024-02-14T00:33:06;97399.16;;;4.32;76.89
56894;BME280;43392;50.078;13.704;2024-02-14T00:35:33;97399.16;;;4.32;77.15
56894;BME280;43392;50.078;13.704;2024-02-14T00:38:01;97405.94;;;4.28;76.67
56894;BME280;43392;50.078;13.704;2024-02-14T00:40:27;97410.16;;;4.17;76.92
56894;BME280;43392;50.078;13.704;2024-02-14T00:42:54;97406.13;;;4.15;76.94
56894;BME280;43392;50.078;13.704;2024-02-14T00:45:20;97404.50;;;4.14;77.06
56894;BME280;43392;50.078;13.704;2024-02-14T00:47:47;97402.88;;;4.13;76.89
56894;BME280;43392;50.078;13.704;2024-02-14T00:50:13;97402.53;;;4.09;77.04
56894;BME280;43392;50.078;13.704;2024-02-14T00:52:40;97403.56;;;4.08;77.31
56894;BME280;43392;50.078;13.704;2024-02-14T00:55:08;97404.38;;;4.09;77.18
56894;BME280;43392;50.078;13.704;2024-02-14T00:57:35;97405.38;;;4.08;77.08
56894;BME280;43392;50.078;13.704;2024-02-14T01:00:01;97414.16;;;4.08;77.38
56894;BME280;43392;50.078;13.704;2024-02-14T01:02:29;97411.28;;;4.10;77.38
56894;BME280;43392;50.078;13.704;2024-02-14T01:04:55;97406.59;;;4.12;77.26
56894;BME280;43392;50.078;13.704;2024-02-14T01:07:22;97414.97;;;4.09;77.30
56894;BME280;43392;50.078;13.704;2024-02-14T01:09:48;97399.25;;;4.07;77.49
56894;BME280;43392;50.078;13.704;2024-02-14T01:12:16;97395.81;;;4.07;77.62
56894;BME280;43392;50.078;13.704;2024-02-14T01:14:43;97393.97;;;4.07;77.62
56894;BME280;43392;50.078;13.704;2024-02-14T01:17:10;97388.44;;;4.09;77.69
56894;BME280;43392;50.078;13.704;2024-02-14T01:19:36;97391.25;;;4.14;77.60
56894;BME280;43392;50.078;13.704;2024-02-14T01:22:03;97383.19;;;4.20;77.65
56894;BME280;43392;50.078;13.704;2024-02-14T01:24:30;97388.41;;;4.27;77.54
56894;BME280;43392;50.078;13.704;2024-02-14T01:26:57;97387.50;;;4.33;77.40
56894;BME280;43392;50.078;13.704;2024-02-14T01:29:25;97394.56;;;4.39;77.46
56894;BME280;43392;50.078;13.704;2024-02-14T01:31:53;97391.47;;;4.42;77.05
56894;BME280;43392;50.078;13.704;2024-02-14T01:34:20;97390.78;;;4.46;77.16
56894;BME280;43392;50.078;13.704;2024-02-14T01:36:47;97386.28;;;4.47;76.91
56894;BME280;43392;50.078;13.704;2024-02-14T01:39:14;97386.59;;;4.39;76.95
56894;BME280;43392;50.078;13.704;2024-02-14T01:41:44;97390.31;;;4.38;77.10
56894;BME280;43392;50.078;13.704;2024-02-14T01:44:11;97374.38;;;4.38;77.05
56894;BME280;43392;50.078;13.704;2024-02-14T01:46:39;97383.81;;;4.34;77.25
56894;BME280;43392;50.078;13.704;2024-02-14T01:49:06;97380.38;;;4.33;77.15
56894;BME280;43392;50.078;13.704;2024-02-14T01:51:33;97378.28;;;4.35;77.30
56894;BME280;43392;50.078;13.704;2024-02-14T01:54:02;97374.38;;;4.38;77.17
56894;BME280;43392;50.078;13.704;2024-02-14T01:56:29;97376.56;;;4.41;77.16
56894;BME280;43392;50.078;13.704;2024-02-14T01:58:56;97375.97;;;4.39;77.04
56894;BME280;43392;50.078;13.704;2024-02-14T02:01:23;97378.28;;;4.35;77.02
56894;BME280;43392;50.078;13.704;2024-02-14T02:03:51;97383.38;;;4.37;77.35
56894;BME280;43392;50.078;13.704;2024-02-14T02:06:18;97379.88;;;4.36;77.26
56894;BME280;43392;50.078;13.704;2024-02-14T02:08:45;97378.06;;;4.37;77.11
56894;BME280;43392;50.078;13.704;2024-02-14T02:11:12;97382.78;;;4.35;77.01
56894;BME280;43392;50.078;13.704;2024-02-14T02:13:39;97390.31;;;4.38;76.99
56894;BME280;43392;50.078;13.704;2024-02-14T02:16:06;97389.25;;;4.39;76.96
56894;BME280;43392;50.078;13.704;2024-02-14T02:18:33;97391.47;;;4.42;77.09
56894;BME280;43392;50.078;13.704;2024-02-14T02:21:01;97386.16;;;4.42;77.04
56894;BME280;43392;50.078;13.704;2024-02-14T02:23:30;97387.78;;;4.43;77.04
56894;BME280;43392;50.078;13.704;2024-02-14T02:25:57;97386.16;;;4.42;77.13
56894;BME280;43392;50.078;13.704;2024-02-14T02:28:23;97395.38;;;4.39;77.34
56894;BME280;43392;50.078;13.704;2024-02-14T02:30:50;97385.75;;;4.27;77.40
56894;BME280;43392;50.078;13.704;2024-02-14T02:33:18;97380.75;;;4.19;77.57
56894;BME280;43392;50.078;13.704;2024-02-14T02:35:47;97383.19;;;4.20;77.68
56894;BME280;43392;50.078;13.704;2024-02-14T02:38:15;97391.72;;;4.22;78.03
56894;BME280;43392;50.078;13.704;2024-02-14T02:40:43;97382.50;;;4.25;78.07
56894;BME280;43392;50.078;13.704;2024-02-14T02:43:09;97384.97;;;4.26;77.92
56894;BME280;43392;50.078;13.704;2024-02-14T02:45:36;97382.41;;;4.31;78.11
56894;BME280;43392;50.078;13.704;2024-02-14T02:48:04;97387.50;;;4.33;78.09
56894;BME280;43392;50.078;13.704;2024-02-14T02:50:31;97388.31;;;4.33;78.19
56894;BME280;43392;50.078;13.704;2024-02-14T02:52:57;97396.16;;;4.28;78.19
56894;BME280;43392;50.078;13.704;2024-02-14T02:55:24;97393.69;;;4.27;78.21
56894;BME280;43392;50.078;13.704;2024-02-14T02:57:53;97397.47;;;4.19;78.54
56894;BME280;43392;50.078;13.704;2024-02-14T03:00:20;97380.63;;;4.14;78.72
56894;BME280;43392;50.078;13.704;2024-02-14T03:02:47;97392.53;;;4.23;78.45
56894;BME280;43392;50.078;13.704;2024-02-14T03:05:14;97381.94;;;4.23;78.58
56894;BME280;43392;50.078;13.704;2024-02-14T03:07:44;97382.50;;;4.25;78.60
56894;BME280;43392;50.078;13.704;2024-02-14T03:10:13;97389.34;;;4.32;78.39
56894;BME280;43392;50.078;13.704;2024-02-14T03:12:40;97384.41;;;4.36;78.73
56894;BME280;43392;50.078;13.704;2024-02-14T03:15:09;97381.53;;;4.37;78.75
56894;BME280;43392;50.078;13.704;2024-02-14T03:17:36;97371.72;;;4.38;78.86
56894;BME280;43392;50.078;13.704;2024-02-14T03:20:03;97378.88;;;4.37;78.72
56894;BME280;43392;50.078;13.704;2024-02-14T03:22:32;97367.66;;;4.35;78.83
56894;BME280;43392;50.078;13.704;2024-02-14T03:24:59;97371.34;;;4.34;78.88
56894;BME280;43392;50.078;13.704;2024-02-14T03:27:26;97366.28;;;4.33;78.95
56894;BME280;43392;50.078;13.704;2024-02-14T03:29:52;97353.69;;;4.28;79.01
56894;BME280;43392;50.078;13.704;2024-02-14T03:32:21;97355.06;;;4.31;79.21
56894;BME280;43392;50.078;13.704;2024-02-14T03:34:48;97349.97;;;4.29;79.17
56894;BME280;43392;50.078;13.704;2024-02-14T03:37:15;97351.81;;;4.29;79.17
56894;BME280;43392;50.078;13.704;2024-02-14T03:39:42;97342.47;;;4.26;79.22
56894;BME280;43392;50.078;13.704;2024-02-14T03:42:11;97343.50;;;4.25;79.10
56894;BME280;43392;50.078;13.704;2024-02-14T03:44:37;97350.44;;;4.26;79.12
56894;BME280;43392;50.078;13.704;2024-02-14T03:47:04;97342.13;;;4.23;79.37
56894;BME280;43392;50.078;13.704;2024-02-14T03:49:32;97338.19;;;4.25;79.10
56894;BME280;43392;50.078;13.704;2024-02-14T03:52:00;97336.81;;;4.23;79.28
56894;BME280;43392;50.078;13.704;2024-02-14T03:54:26;97335.16;;;4.22;79.30
56894;BME280;43392;50.078;13.704;2024-02-14T03:56:53;97337.03;;;4.21;79.32
56894;BME280;43392;50.078;13.704;2024-02-14T03:59:20;97341.53;;;4.21;79.27
56894;BME280;43392;50.078;13.704;2024-02-14T04:01:49;97337.47;;;4.18;79.40
56894;BME280;43392;50.078;13.704;2024-02-14T04:04:18;97340.13;;;4.18;79.42
56894;BME280;43392;50.078;13.704;2024-02-14T04:06:46;97343.59;;;4.19;79.30
56894;BME280;43392;50.078;13.704;2024-02-14T04:09:13;97343.59;;;4.19;79.24
56894;BME280;43392;50.078;13.704;2024-02-14T04:11:39;97347.03;;;4.19;79.41
56894;BME280;43392;50.078;13.704;2024-02-14T04:14:06;97336.44;;;4.19;79.21
56894;BME280;43392;50.078;13.704;2024-02-14T04:16:33;97341.75;;;4.19;79.20
56894;BME280;43392;50.078;13.704;2024-02-14T04:19:01;97347.03;;;4.19;79.28
56894;BME280;43392;50.078;13.704;2024-02-14T04:21:28;97339.09;;;4.19;79.28
56894;BME280;43392;50.078;13.704;2024-02-14T04:23:56;97350.53;;;4.20;79.24
56894;BME280;43392;50.078;13.704;2024-02-14T04:26:22;97343.59;;;4.19;79.20
56894;BME280;43392;50.078;13.704;2024-02-14T04:28:49;97344.41;;;4.19;79.12
56894;BME280;43392;50.078;13.704;2024-02-14T04:31:16;97343.38;;;4.20;79.04
56894;BME280;43392;50.078;13.704;2024-02-14T04:33:42;97345.22;;;4.20;79.13
56894;BME280;43392;50.078;13.704;2024-02-14T04:36:11;97346.84;;;4.21;79.08
56894;BME280;43392;50.078;13.704;2024-02-14T04:38:38;97340.47;;;4.22;79.08
56894;BME280;43392;50.078;13.704;2024-02-14T04:41:07;97340.47;;;4.22;79.06
56894;BME280;43392;50.078;13.704;2024-02-14T04:43:35;97335.41;;;4.20;78.95
56894;BME280;43392;50.078;13.704;2024-02-14T04:46:02;97342.94;;;4.23;78.88
56894;BME280;43392;50.078;13.704;2024-02-14T04:48:32;97337.38;;;4.25;78.87
56894;BME280;43392;50.078;13.704;2024-02-14T04:50:58;97340.84;;;4.25;78.75
56894;BME280;43392;50.078;13.704;2024-02-14T04:53:25;97343.28;;;4.27;78.65
56894;BME280;43392;50.078;13.704;2024-02-14T04:55:51;97349.16;;;4.29;78.64
56894;BME280;43392;50.078;13.704;2024-02-14T04:58:20;97353.22;;;4.31;78.50
56894;BME280;43392;50.078;13.704;2024-02-14T05:00:46;97348.50;;;4.33;78.45
56894;BME280;43392;50.078;13.704;2024-02-14T05:03:13;97354.59;;;4.34;78.49
56894;BME280;43392;50.078;13.704;2024-02-14T05:05:40;97353.00;;;4.33;78.21
56894;BME280;43392;50.078;13.704;2024-02-14T05:08:07;97351.59;;;4.30;78.21
56894;BME280;43392;50.078;13.704;2024-02-14T05:10:33;97355.06;;;4.31;78.39
56894;BME280;43392;50.078;13.704;2024-02-14T05:13:00;97347.91;;;4.31;78.34
56894;BME280;43392;50.078;13.704;2024-02-14T05:15:28;97353.22;;;4.31;78.24
56894;BME280;43392;50.078;13.704;2024-02-14T05:17:55;97353.56;;;4.35;78.30
56894;BME280;43392;50.078;13.704;2024-02-14T05:20:22;97341.69;;;4.37;78.14
56894;BME280;43392;50.078;13.704;2024-02-14T05:22:48;97353.13;;;4.38;78.00
56894;BME280;43392;50.078;13.704;2024-02-14T05:25:15;97359.25;;;4.38;78.08
56894;BME280;43392;50.078;13.704;2024-02-14T05:27:43;97349.44;;;4.39;77.92
56894;BME280;43392;50.078;13.704;2024-02-14T05:30:11;97345.38;;;4.36;77.67
56894;BME280;43392;50.078;13.704;2024-02-14T05:32:39;97345.75;;;4.40;77.87
56894;BME280;43392;50.078;13.704;2024-02-14T05:35:06;97337.78;;;4.40;77.72
56894;BME280;43392;50.078;13.704;2024-02-14T05:37:33;97342.84;;;4.41;77.76
56894;BME280;43392;50.078;13.704;2024-02-14T05:39:59;97345.31;;;4.43;77.62
56894;BME280;43392;50.078;13.704;2024-02-14T05:42:26;97339.50;;;4.46;77.58
56894;BME280;43392;50.078;13.704;2024-02-14T05:44:53;97333.75;;;4.49;77.33
56894;BME280;43392;50.078;13.704;2024-02-14T05:47:19;97341.50;;;4.50;77.35
56894;BME280;43392;50.078;13.704;2024-02-14T05:49:47;97337.13;;;4.56;77.32
56894;BME280;43392;50.078;13.704;2024-02-14T05:52:14;97342.22;;;4.57;77.40
56894;BME280;43392;50.078;13.704;2024-02-14T05:54:41;97335.53;;;4.55;77.45
56894;BME280;43392;50.078;13.704;2024-02-14T05:57:08;97342.22;;;4.57;77.47
56894;BME280;43392;50.078;13.704;2024-02-14T05:59:35;97325.09;;;4.53;77.62
56894;BME280;43392;50.078;13.704;2024-02-14T06:02:01;97334.94;;;4.53;77.42
56894;BME280;43392;50.078;13.704;2024-02-14T06:04:30;97338.19;;;4.55;77.48
56894;BME280;43392;50.078;13.704;2024-02-14T06:06:58;97338.38;;;4.53;77.58
56894;BME280;43392;50.078;13.704;2024-02-14T06:09:25;97339.44;;;4.52;77.68
56894;BME280;43392;50.078;13.704;2024-02-14T06:11:52;97337.81;;;4.51;77.76
56894;BME280;43392;50.078;13.704;2024-02-14T06:14:19;97337.00;;;4.51;77.80
56894;BME280;43392;50.078;13.704;2024-02-14T06:16:45;97331.91;;;4.49;77.81
56894;BME280;43392;50.078;13.704;2024-02-14T06:19:12;97335.03;;;4.46;78.10
56894;BME280;43392;50.078;13.704;2024-02-14T06:21:38;97334.19;;;4.46;78.13
56894;BME280;43392;50.078;13.704;2024-02-14T06:24:06;97337.91;;;4.45;78.23
56894;BME280;43392;50.078;13.704;2024-02-14T06:26:35;97346.91;;;4.44;78.30
56894;BME280;43392;50.078;13.704;2024-02-14T06:29:02;97357.53;;;4.44;78.38
56894;BME280;43392;50.078;13.704;2024-02-14T06:31:28;97347.13;;;4.42;78.56
56894;BME280;43392;50.078;13.704;2024-02-14T06:33:55;97350.38;;;4.44;78.54
56894;BME280;43392;50.078;13.704;2024-02-14T06:36:22;97348.53;;;4.45;78.38
56894;BME280;43392;50.078;13.704;2024-02-14T06:38:48;97346.69;;;4.45;78.32
56894;BME280;43392;50.078;13.704;2024-02-14T06:41:17;97342.97;;;4.46;78.49
56894;BME280;43392;50.078;13.704;2024-02-14T06:43:45;97349.69;;;4.49;78.68
56894;BME280;43392;50.078;13.704;2024-02-14T06:46:11;97352.47;;;4.54;78.49
56894;BME280;43392;50.078;13.704;2024-02-14T06:48:38;97354.09;;;4.55;78.25
56894;BME280;43392;50.078;13.704;2024-02-14T06:51:06;97354.44;;;4.58;78.38
56894;BME280;43392;50.078;13.704;2024-02-14T06:53:33;97353.75;;;4.63;78.13
56894;BME280;43392;50.078;13.704;2024-02-14T06:56:01;97352.16;;;4.62;78.34
56894;BME280;43392;50.078;13.704;2024-02-14T06:58:28;97352.88;;;4.69;78.31
56894;BME280;43392;50.078;13.704;2024-02-14T07:00:55;97366.72;;;4.71;78.24
56894;BME280;43392;50.078;13.704;2024-02-14T07:03:22;97368.34;;;4.72;78.16
56894;BME280;43392;50.078;13.704;2024-02-14T07:05:48;97358.31;;;4.74;78.25
56894;BME280;43392;50.078;13.704;2024-02-14T07:08:15;97360.72;;;4.76;78.26
56894;BME280;43392;50.078;13.704;2024-02-14T07:10:41;97355.19;;;4.77;78.53
56894;BME280;43392;50.078;13.704;2024-02-14T07:13:08;97357.84;;;4.77;78.60
56894;BME280;43392;50.078;13.704;2024-02-14T07:15:36;97365.59;;;4.79;78.56
56894;BME280;43392;50.078;13.704;2024-02-14T07:18:04;97369.06;;;4.79;78.63
56894;BME280;43392;50.078;13.704;2024-02-14T07:20:30;97369.25;;;4.78;78.75
56894;BME280;43392;50.078;13.704;2024-02-14T07:22:57;97360.50;;;4.77;78.67
56894;BME280;43392;50.078;13.704;2024-02-14T07:25:24;97368.47;;;4.77;78.74
56894;BME280;43392;50.078;13.704;2024-02-14T07:27:51;97376.44;;;4.77;78.70
56894;BME280;43392;50.078;13.704;2024-02-14T07:30:18;97364.44;;;4.75;78.56
56894;BME280;43392;50.078;13.704;2024-02-14T07:32:46;97365.69;;;4.72;78.80
56894;BME280;43392;50.078;13.704;2024-02-14T07:35:12;97371.78;;;4.72;78.90
56894;BME280;43392;50.078;13.704;2024-02-14T07:37:39;97360.00;;;4.68;78.94
56894;BME280;43392;50.078;13.704;2024-02-14T07:40:08;97374.31;;;4.67;78.98
56894;BME280;43392;50.078;13.704;2024-02-14T07:42:34;97365.19;;;4.63;78.97
56894;BME280;43392;50.078;13.704;2024-02-14T07:45:01;97369.94;;;4.61;79.03
56894;BME280;43392;50.078;13.704;2024-02-14T07:47:28;97358.50;;;4.61;79.05
56894;BME280;43392;50.078;13.704;2024-02-14T07:49:56;97365.44;;;4.62;79.19
56894;BME280;43392;50.078;13.704;2024-02-14T07:52:23;97351.09;;;4.63;78.97
56894;BME280;43392;50.078;13.704;2024-02-14T07:54:52;97355.72;;;4.67;78.80
56894;BME280;43392;50.078;13.704;2024-02-14T07:57:19;97350.91;;;4.64;79.03
56894;BME280;43392;50.078;13.704;2024-02-14T07:59:45;97355.28;;;4.70;78.85
56894;BME280;43392;50.078;13.704;2024-02-14T08:02:12;97347.88;;;4.72;78.84
56894;BME280;43392;50.078;13.704;2024-02-14T08:04:38;97351.34;;;4.73;78.87
56894;BME280;43392;50.078;13.704;2024-02-14T08:07:06;97353.00;;;4.74;78.95
56894;BME280;43392;50.078;13.704;2024-02-14T08:09:33;97350.91;;;4.76;79.12
56894;BME280;43392;50.078;13.704;2024-02-14T08:11:59;97342.69;;;4.78;78.91
56894;BME280;43392;50.078;13.704;2024-02-14T08:14:26;97350.22;;;4.81;78.97
56894;BME280;43392;50.078;13.704;2024-02-14T08:16:53;97345.47;;;4.83;78.79
56894;BME280;43392;50.078;13.704;2024-02-14T08:19:19;97340.97;;;4.83;78.77
56894;BME280;43392;50.078;13.704;2024-02-14T08:21:46;97342.94;;;4.88;78.87
56894;BME280;43392;50.078;13.704;2024-02-14T08:24:14;97354.72;;;4.92;78.97
56894;BME280;43392;50.078;13.704;2024-02-14T08:26:40;97344.22;;;4.97;78.59
56894;BME280;43392;50.078;13.704;2024-02-14T08:29:07;97341.81;;;4.95;78.46
56894;BME280;43392;50.078;13.704;2024-02-14T08:31:36;97339.25;;;5.00;78.33
56894;BME280;43392;50.078;13.704;2024-02-14T08:34:03;97349.66;;;5.02;78.48
56894;BME280;43392;50.078;13.704;2024-02-14T08:36:29;97351.03;;;5.04;78.25
56894;BME280;43392;50.078;13.704;2024-02-14T08:38:56;97338.94;;;5.08;78.21
56894;BME280;43392;50.078;13.704;2024-02-14T08:41:24;97352.34;;;5.13;78.08
56894;BME280;43392;50.078;13.704;2024-02-14T08:43:50;97349.75;;;5.18;77.57
56894;BME280;43392;50.078;13.704;2024-02-14T08:46:17;97361.13;;;5.25;77.57
56894;BME280;43392;50.078;13.704;2024-02-14T08:48:44;97365.03;;;5.34;77.78
56894;BME280;43392;50.078;13.704;2024-02-14T08:51:12;97376.94;;;5.44;77.42
56894;BME280;43392;50.078;13.704;2024-02-14T08:53:38;97371.38;;;5.45;77.45
56894;BME280;43392;50.078;13.704;2024-02-14T08:56:06;97372.88;;;5.53;77.38
56894;BME280;43392;50.078;13.704;2024-02-14T08:58:34;97371.97;;;5.59;77.34
56894;BME280;43392;50.078;13.704;2024-02-14T09:01:01;97373.09;;;5.63;77.12
56894;BME280;43392;50.078;13.704;2024-02-14T09:03:28;97365.78;;;5.70;77.18
56894;BME280;43392;50.078;13.704;2024-02-14T09:05:56;97367.28;;;5.77;77.00
56894;BME280;43392;50.078;13.704;2024-02-14T09:08:22;97353.84;;;5.84;76.84
56894;BME280;43392;50.078;13.704;2024-02-14T09:10:49;97356.31;;;5.85;76.78
56894;BME280;43392;50.078;13.704;2024-02-14T09:13:16;97363.13;;;5.93;76.57
56894;BME280;43392;50.078;13.704;2024-02-14T09:15:44;97353.38;;;5.98;76.44
56894;BME280;43392;50.078;13.704;2024-02-14T09:18:10;97354.84;;;6.06;76.20
56894;BME280;43392;50.078;13.704;2024-02-14T09:20:37;97343.84;;;6.14;76.03
56894;BME280;43392;50.078;13.704;2024-02-14T09:23:04;97347.63;;;6.18;75.77
56894;BME280;43392;50.078;13.704;2024-02-14T09:25:30;97335.13;;;6.19;75.74
56894;BME280;43392;50.078;13.704;2024-02-14T09:27:57;97346.59;;;6.19;75.61
56894;BME280;43392;50.078;13.704;2024-02-14T09:30:23;97340.31;;;6.25;75.62
56894;BME280;43392;50.078;13.704;2024-02-14T09:32:51;97329.84;;;6.35;75.62
56894;BME280;43392;50.078;13.704;2024-02-14T09:35:18;97332.13;;;6.43;75.25
56894;BME280;43392;50.078;13.704;2024-02-14T09:37:44;97314.69;;;6.52;74.69
56894;BME280;43392;50.078;13.704;2024-02-14T09:40:11;97313.66;;;6.53;74.90
56894;BME280;43392;50.078;13.704;2024-02-14T09:42:43;97311.22;;;6.52;74.71
56894;BME280;43392;50.078;13.704;2024-02-14T09:45:11;97310.19;;;6.69;74.16
56894;BME280;43392;50.078;13.704;2024-02-14T09:47:39;97289.59;;;6.82;74.09
56894;BME280;43392;50.078;13.704;2024-02-14T09:50:09;97298.22;;;6.89;74.08
56894;BME280;43392;50.078;13.704;2024-02-14T09:52:38;97307.13;;;6.94;73.82
56894;BME280;43392;50.078;13.704;2024-02-14T09:55:05;97325.13;;;7.04;73.46
56894;BME280;43392;50.078;13.704;2024-02-14T09:57:32;97327.13;;;7.13;73.20
56894;BME280;43392;50.078;13.704;2024-02-14T10:00:00;97322.44;;;7.20;73.23
56894;BME280;43392;50.078;13.704;2024-02-14T10:02:28;97332.69;;;7.28;72.86
56894;BME280;43392;50.078;13.704;2024-02-14T10:04:56;97326.06;;;7.31;72.76
56894;BME280;43392;50.078;13.704;2024-02-14T10:07:24;97327.19;;;7.35;72.94
56894;BME280;43392;50.078;13.704;2024-02-14T10:09:50;97341.41;;;7.41;72.61
56894;BME280;43392;50.078;13.704;2024-02-14T10:12:17;97338.28;;;7.49;72.65
56894;BME280;43392;50.078;13.704;2024-02-14T10:14:44;97337.00;;;7.51;72.83
56894;BME280;43392;50.078;13.704;2024-02-14T10:17:17;97352.84;;;7.58;72.81
56894;BME280;43392;50.078;13.704;2024-02-14T10:19:54;97349.91;;;7.59;72.64
56894;BME280;43392;50.078;13.704;2024-02-14T10:22:20;97352.72;;;7.69;72.35
56894;BME280;43392;50.078;13.704;2024-02-14T10:24:49;97356.28;;;7.75;72.47
56894;BME280;43392;50.078;13.704;2024-02-14T10:27:15;97359.56;;;7.82;72.46
56894;BME280;43392;50.078;13.704;2024-02-14T10:29:42;97355.09;;;7.87;72.33
56894;BME280;43392;50.078;13.704;2024-02-14T10:32:09;97357.31;;;7.95;72.21
56894;BME280;43392;50.078;13.704;2024-02-14T10:34:37;97354.66;;;7.95;72.40
56894;BME280;43392;50.078;13.704;2024-02-14T10:37:05;97355.91;;;7.88;72.41
56894;BME280;43392;50.078;13.704;2024-02-14T10:39:32;97360.94;;;7.84;72.64
56894;BME280;43392;50.078;13.704;2024-02-14T10:42:03;97345.66;;;7.80;72.77
56894;BME280;43392;50.078;13.704;2024-02-14T10:44:31;97357.13;;;7.80;72.42
56894;BME280;43392;50.078;13.704;2024-02-14T10:46:59;97341.50;;;7.89;72.25
56894;BME280;43392;50.078;13.704;2024-02-14T10:49:29;97350.69;;;7.98;71.83
56894;BME280;43392;50.078;13.704;2024-02-14T10:51:58;97349.00;;;8.14;71.61
56894;BME280;43392;50.078;13.704;2024-02-14T10:54:28;97348.44;;;8.33;71.02
56894;BME280;43392;50.078;13.704;2024-02-14T10:56:58;97344.16;;;8.59;70.52
56894;BME280;43392;50.078;13.704;2024-02-14T10:59:26;97339.84;;;8.85;69.91
56894;BME280;43392;50.078;13.704;2024-02-14T11:01:53;97335.47;;;9.05;69.75
56894;BME280;43392;50.078;13.704;2024-02-14T11:04:22;97331.31;;;9.24;69.17
56894;BME280;43392;50.078;13.704;2024-02-14T11:06:51;97331.06;;;9.26;69.16
56894;BME280;43392;50.078;13.704;2024-02-14T11:09:19;97326.00;;;9.29;68.93
56894;BME280;43392;50.078;13.704;2024-02-14T11:11:46;97336.25;;;9.43;68.99
56894;BME280;43392;50.078;13.704;2024-02-14T11:14:15;97339.75;;;9.48;68.88
56894;BME280;43392;50.078;13.704;2024-02-14T11:16:45;97312.25;;;9.58;68.51
56894;BME280;43392;50.078;13.704;2024-02-14T11:19:13;97327.63;;;9.82;68.19
56894;BME280;43392;50.078;13.704;2024-02-14T11:21:42;97332.25;;;9.97;67.88
56894;BME280;43392;50.078;13.704;2024-02-14T11:24:10;97336.56;;;10.08;67.73
56894;BME280;43392;50.078;13.704;2024-02-14T11:26:46;97332.81;;;10.04;67.63
56894;BME280;43392;50.078;13.704;2024-02-14T11:29:14;97328.84;;;10.12;67.66
56894;BME280;43392;50.078;13.704;2024-02-14T11:31:44;97317.56;;;10.10;67.49
56894;BME280;43392;50.078;13.704;2024-02-14T11:34:12;97311.09;;;10.06;67.52
56894;BME280;43392;50.078;13.704;2024-02-14T11:36:41;97311.63;;;10.08;67.61
56894;BME280;43392;50.078;13.704;2024-02-14T11:39:08;97306.34;;;10.23;67.24
56894;BME280;43392;50.078;13.704;2024-02-14T11:41:35;97301.56;;;10.30;66.99
56894;BME280;43392;50.078;13.704;2024-02-14T11:44:03;97299.16;;;10.38;66.84
56894;BME280;43392;50.078;13.704;2024-02-14T11:46:31;97292.22;;;10.57;66.36
56894;BME280;43392;50.078;13.704;2024-02-14T11:48:59;97288.47;;;10.68;66.16
56894;BME280;43392;50.078;13.704;2024-02-14T11:51:27;97283.38;;;10.82;66.03
56894;BME280;43392;50.078;13.704;2024-02-14T11:53:55;97292.78;;;10.90;65.63
56894;BME280;43392;50.078;13.704;2024-02-14T11:56:22;97301.34;;;10.87;65.58
56894;BME280;43392;50.078;13.704;2024-02-14T11:58:51;97303.75;;;10.78;65.86
56894;BME280;43392;50.078;13.704;2024-02-14T12:01:18;97297.06;;;10.65;66.14
56894;BME280;43392;50.078;13.704;2024-02-14T12:03:45;97311.25;;;10.71;66.22
56894;BME280;43392;50.078;13.704;2024-02-14T12:06:13;97312.38;;;10.80;66.26
56894;BME280;43392;50.078;13.704;2024-02-14T12:08:41;97306.72;;;10.87;66.04
56894;BME280;43392;50.078;13.704;2024-02-14T12:11:08;97312.91;;;10.82;66.53
56894;BME280;43392;50.078;13.704;2024-02-14T12:13:35;97306.19;;;10.80;66.53
56894;BME280;43392;50.078;13.704;2024-02-14T12:16:03;97326.28;;;10.72;66.64
56894;BME280;43392;50.078;13.704;2024-02-14T12:18:32;97326.56;;;10.60;67.18
56894;BME280;43392;50.078;13.704;2024-02-14T12:21:06;97322.75;;;10.46;67.27
56894;BME280;43392;50.078;13.704;2024-02-14T12:23:35;97318.72;;;10.34;67.67
56894;BME280;43392;50.078;13.704;2024-02-14T12:26:03;97326.44;;;10.20;67.98
56894;BME280;43392;50.078;13.704;2024-02-14T12:28:30;97319.72;;;10.13;68.60
56894;BME280;43392;50.078;13.704;2024-02-14T12:30:57;97327.19;;;10.06;68.86
56894;BME280;43392;50.078;13.704;2024-02-14T12:33:25;97325.56;;;9.99;69.17
56894;BME280;43392;50.078;13.704;2024-02-14T12:35:53;97329.28;;;9.93;69.50
56894;BME280;43392;50.078;13.704;2024-02-14T12:38:21;97322.84;;;9.89;69.64
56894;BME280;43392;50.078;13.704;2024-02-14T12:40:49;97320.69;;;9.86;69.85
56894;BME280;43392;50.078;13.704;2024-02-14T12:43:17;97326.56;;;9.83;70.06
56894;BME280;43392;50.078;13.704;2024-02-14T12:45:43;97321.97;;;9.79;70.27
56894;BME280;43392;50.078;13.704;2024-02-14T12:48:11;97320.38;;;9.73;70.65
56894;BME280;43392;50.078;13.704;2024-02-14T12:50:39;97315.25;;;9.66;70.80
56894;BME280;43392;50.078;13.704;2024-02-14T12:53:12;97325.38;;;9.64;71.00
56894;BME280;43392;50.078;13.704;2024-02-14T12:55:39;97327.00;;;9.65;71.38
56894;BME280;43392;50.078;13.704;2024-02-14T12:58:07;97306.41;;;9.66;71.69
56894;BME280;43392;50.078;13.704;2024-02-14T13:00:35;97307.22;;;9.66;71.85